createdAt,value
2023-07-03T00:01:33.366Z,99998.63
2023-07-03T00:04:01.581Z,99996.19
2023-07-03T00:06:30.439Z,100006.81
2023-07-03T00:08:58.480Z,100005.16
2023-07-03T00:11:26.493Z,100007.63
2023-07-03T00:13:56.055Z,99993.47
2023-07-03T00:16:24.187Z,99999.88
2023-07-03T00:18:52.197Z,100003.88
2023-07-03T00:21:20.169Z,100005.53
2023-07-03T00:23:48.296Z,100005.34
2023-07-03T00:26:16.302Z,100004.41
2023-07-03T00:28:44.495Z,100007.22
2023-07-03T00:31:14.042Z,100007.03
2023-07-03T00:33:42.160Z,100001.31
2023-07-03T00:36:11.225Z,100011.81
2023-07-03T00:38:39.312Z,100001.25
2023-07-03T00:41:07.338Z,100000.59
2023-07-03T00:43:35.706Z,100000.63
2023-07-03T00:46:04.552Z,100018.78
2023-07-03T00:48:34.570Z,100025.09
2023-07-03T00:51:03.064Z,100020.75
2023-07-03T00:53:31.152Z,100029.38
2023-07-03T00:55:59.401Z,100024.75
2023-07-03T00:58:28.648Z,100020.63
2023-07-03T01:01:01.720Z,100026.72
2023-07-03T01:03:37.231Z,100025.63
2023-07-03T01:06:08.738Z,100016.38
2023-07-03T01:08:36.965Z,100024.13
2023-07-03T01:11:05.493Z,100018.53
2023-07-03T01:13:37.173Z,100017.91
2023-07-03T01:16:08.593Z,100018.44
2023-07-03T01:18:38.868Z,100021.59
2023-07-03T01:21:11.774Z,100023.59
2023-07-03T01:23:48.046Z,100029.38
2023-07-03T01:26:18.553Z,100027.06
2023-07-03T01:28:48.122Z,100018.03
2023-07-03T01:31:19.031Z,100023.31
2023-07-03T01:33:47.625Z,100018.53
2023-07-03T01:36:17.751Z,100028.94
2023-07-03T01:38:47.704Z,100025.19
2023-07-03T01:41:20.559Z,100018.44
2023-07-03T01:43:49.415Z,100022.91
2023-07-03T01:46:17.820Z,100010.22
2023-07-03T01:48:45.923Z,100019.78
2023-07-03T01:51:21.469Z,100017.19
2023-07-03T01:53:56.524Z,100019.00
2023-07-03T01:56:31.517Z,100016.50
2023-07-03T01:59:05.576Z,100018.16
2023-07-03T02:01:43.401Z,100016.69
2023-07-03T02:04:20.377Z,100031.19
2023-07-03T02:06:49.798Z,100033.00
2023-07-03T02:09:18.566Z,100025.41
2023-07-03T02:11:49.513Z,100039.28
2023-07-03T02:14:17.741Z,100039.28
2023-07-03T02:16:48.411Z,100044.56
2023-07-03T02:19:17.447Z,100045.22
2023-07-03T02:21:46.765Z,100045.53
2023-07-03T02:24:15.211Z,100044.22
2023-07-03T02:26:44.963Z,100058.06
2023-07-03T02:29:14.663Z,100050.16
2023-07-03T02:31:42.625Z,100059.88
2023-07-03T02:34:10.676Z,100055.28
2023-07-03T02:36:39.817Z,100069.63
2023-07-03T02:39:08.771Z,100077.69
2023-07-03T02:41:36.789Z,100073.25
2023-07-03T02:44:05.118Z,100059.72
2023-07-03T02:46:34.514Z,100075.22
2023-07-03T02:49:02.571Z,100080.19
2023-07-03T02:51:30.604Z,100073.25
2023-07-03T02:53:58.566Z,100073.25
2023-07-03T02:56:27.011Z,100084.78
2023-07-03T02:58:55.020Z,100074.56
2023-07-03T03:01:23.131Z,100073.25
2023-07-03T03:03:52.913Z,100081.97
2023-07-03T03:06:21.136Z,100087.94
2023-07-03T03:08:50.061Z,100085.28
2023-07-03T03:11:18.027Z,100086.78
2023-07-03T03:13:45.975Z,100085.94
2023-07-03T03:16:13.956Z,100086.78
2023-07-03T03:18:41.923Z,100086.78
2023-07-03T03:21:11.594Z,100089.25
2023-07-03T03:23:39.591Z,100085.63
2023-07-03T03:26:08.254Z,100090.06
2023-07-03T03:28:36.420Z,100090.91
2023-07-03T03:31:04.983Z,100102.75
2023-07-03T03:33:33.154Z,100101.59
2023-07-03T03:36:01.170Z,100104.41
2023-07-03T03:38:30.828Z,100107.69
2023-07-03T03:41:00.843Z,100107.00
2023-07-03T03:43:28.850Z,100105.16
2023-07-03T03:45:57.869Z,100108.44
2023-07-03T03:48:26.770Z,100118.97
2023-07-03T03:50:54.851Z,100113.28
2023-07-03T03:53:22.864Z,100119.19
2023-07-03T03:55:53.011Z,100123.13
2023-07-03T03:58:22.469Z,100120.44
2023-07-03T04:00:52.130Z,100118.22
2023-07-03T04:03:20.154Z,100118.31
2023-07-03T04:05:49.411Z,100123.19
2023-07-03T04:08:17.824Z,100137.66
2023-07-03T04:10:46.009Z,100129.94
2023-07-03T04:13:15.739Z,100126.72
2023-07-03T04:15:58.807Z,100133.97
2023-07-03T04:18:27.912Z,100127.91
2023-07-03T04:20:56.120Z,100140.59
2023-07-03T04:23:24.763Z,100137.81
2023-07-03T04:25:53.106Z,100136.63
2023-07-03T04:28:24.910Z,100144.00
2023-07-03T04:30:53.041Z,100139.31
2023-07-03T04:33:21.396Z,100143.91
2023-07-03T04:35:50.427Z,100129.47
2023-07-03T04:38:19.948Z,100141.72
2023-07-03T04:40:48.472Z,100136.53
2023-07-03T04:43:17.308Z,100142.09
2023-07-03T04:45:49.822Z,100143.63
2023-07-03T04:48:18.638Z,100152.00
2023-07-03T04:50:49.141Z,100152.97
2023-07-03T04:53:17.560Z,100155.50
2023-07-03T04:55:45.686Z,100149.06
2023-07-03T04:58:13.819Z,100149.13
2023-07-03T05:00:42.092Z,100151.25
2023-07-03T05:03:11.742Z,100156.81
2023-07-03T05:05:39.985Z,100154.94
2023-07-03T05:08:08.001Z,100168.94
2023-07-03T05:10:36.573Z,100152.22
2023-07-03T05:13:04.917Z,100167.78
2023-07-03T05:15:33.068Z,100159.69
2023-07-03T05:18:01.335Z,100167.91
2023-07-03T05:20:31.157Z,100167.69
2023-07-03T05:22:59.831Z,100168.69
2023-07-03T05:25:28.051Z,100167.31
2023-07-03T05:27:56.509Z,100167.50
2023-07-03T05:30:24.952Z,100164.22
2023-07-03T05:32:53.090Z,100180.19
2023-07-03T05:35:21.270Z,100181.38
2023-07-03T05:37:50.752Z,100174.81
2023-07-03T05:40:19.047Z,100183.00
2023-07-03T05:42:47.134Z,100176.78
2023-07-03T05:45:15.612Z,100181.84
2023-07-03T05:47:43.637Z,100187.59
2023-07-03T05:50:12.220Z,100182.66
2023-07-03T05:52:41.900Z,100174.19
2023-07-03T05:55:11.754Z,100181.97
2023-07-03T05:57:40.381Z,100179.19
2023-07-03T06:00:14.819Z,100180.13
2023-07-03T06:02:44.123Z,100178.75
2023-07-03T06:05:14.440Z,100185.69
2023-07-03T06:07:42.931Z,100193.41
2023-07-03T06:10:13.829Z,100192.69
2023-07-03T06:12:42.306Z,100190.44
2023-07-03T06:15:11.404Z,100194.47
2023-07-03T06:17:40.130Z,100192.19
2023-07-03T06:20:12.052Z,100193.44
2023-07-03T06:22:40.711Z,100192.38
2023-07-03T06:25:09.484Z,100195.91
2023-07-03T06:27:39.234Z,100178.84
2023-07-03T06:30:08.722Z,100193.94
2023-07-03T06:32:37.032Z,100200.22
2023-07-03T06:35:07.125Z,100181.00
2023-07-03T06:37:37.155Z,100196.44
2023-07-03T06:40:07.921Z,100199.78
2023-07-03T06:42:36.408Z,100208.72
2023-07-03T06:45:07.205Z,100206.63
2023-07-03T06:47:35.826Z,100204.00
2023-07-03T06:50:04.097Z,100200.97
2023-07-03T06:52:32.395Z,100200.97
2023-07-03T06:55:00.928Z,100200.81
2023-07-03T06:57:29.592Z,100208.69
2023-07-03T06:59:57.801Z,100185.19
2023-07-03T07:02:27.954Z,100187.72
2023-07-03T07:04:58.277Z,100216.72
2023-07-03T07:07:28.011Z,100192.94
2023-07-03T07:09:56.602Z,100218.25
2023-07-03T07:12:25.005Z,100213.22
2023-07-03T07:14:53.168Z,100219.22
2023-07-03T07:17:23.774Z,100226.88
2023-07-03T07:19:58.864Z,100214.91
2023-07-03T07:22:27.165Z,100223.66
2023-07-03T07:24:55.335Z,100223.78
2023-07-03T07:27:23.698Z,100220.03
2023-07-03T07:29:52.031Z,100231.00
2023-07-03T07:32:21.083Z,100230.25
2023-07-03T07:34:49.421Z,100234.91
2023-07-03T07:37:19.447Z,100232.25
2023-07-03T07:39:47.772Z,100206.25
2023-07-03T07:42:15.817Z,100224.09
2023-07-03T07:44:43.775Z,100228.41
2023-07-03T07:47:12.470Z,100222.69
2023-07-03T07:49:43.230Z,100228.53
2023-07-03T07:52:11.475Z,100216.56
2023-07-03T07:54:41.122Z,100237.84
2023-07-03T07:57:09.492Z,100241.78
2023-07-03T07:59:38.902Z,100240.84
2023-07-03T08:02:08.678Z,100231.97
2023-07-03T08:04:37.917Z,100235.78
2023-07-03T08:07:06.705Z,100236.56
2023-07-03T08:09:34.992Z,100235.59
2023-07-03T08:12:05.845Z,100246.31
2023-07-03T08:14:34.304Z,100250.31
2023-07-03T08:17:03.560Z,100250.00
2023-07-03T08:19:32.428Z,100248.81
2023-07-03T08:22:00.560Z,100251.19
2023-07-03T08:24:28.767Z,100240.19
2023-07-03T08:26:56.869Z,100245.53
2023-07-03T08:29:26.654Z,100257.41
2023-07-03T08:31:55.149Z,100250.63
2023-07-03T08:34:23.593Z,100255.06
2023-07-03T08:39:23.290Z,100238.28
2023-07-03T08:42:01.521Z,100255.88
2023-07-03T08:44:31.215Z,100262.13
2023-07-03T08:47:10.471Z,100256.84
2023-07-03T08:49:42.161Z,100255.78
2023-07-03T08:52:10.758Z,100255.50
2023-07-03T08:54:42.759Z,100252.44
2023-07-03T08:57:13.238Z,100264.31
2023-07-03T08:59:43.207Z,100262.31
2023-07-03T09:02:17.530Z,100260.38
2023-07-03T09:04:59.955Z,100259.94
2023-07-03T09:07:33.661Z,100261.63
2023-07-03T09:10:08.961Z,100257.03
2023-07-03T09:12:41.866Z,100258.56
2023-07-03T09:15:14.363Z,100257.19
2023-07-03T09:17:45.049Z,100246.78
2023-07-03T09:20:16.029Z,100249.03
2023-07-03T09:22:48.904Z,100246.38
2023-07-03T09:27:54.086Z,100252.63
2023-07-03T09:30:24.709Z,100248.72
2023-07-03T09:32:52.934Z,100253.56
2023-07-03T09:35:22.874Z,100245.38
2023-07-03T09:37:53.163Z,100248.44
2023-07-03T09:40:25.201Z,100248.91
2023-07-03T09:42:54.082Z,100247.88
2023-07-03T09:45:26.161Z,100224.94
2023-07-03T09:47:59.848Z,100238.81
2023-07-03T09:50:31.024Z,100243.66
2023-07-03T09:53:08.296Z,100240.72
2023-07-03T09:55:38.457Z,100236.03
2023-07-03T09:58:14.269Z,100238.69
2023-07-03T10:00:50.583Z,100238.00
2023-07-03T10:03:30.833Z,100238.72
2023-07-03T10:08:43.966Z,100225.31
2023-07-03T10:11:13.510Z,100234.38
2023-07-03T10:13:48.335Z,100222.63
2023-07-03T10:16:18.819Z,100231.97
2023-07-03T10:18:50.588Z,100227.34
2023-07-03T10:21:22.591Z,100239.78
2023-07-03T10:23:52.295Z,100223.25
2023-07-03T10:26:25.613Z,100238.28
2023-07-03T10:29:00.260Z,100218.38
2023-07-03T10:31:35.183Z,100222.19
2023-07-03T10:34:08.110Z,100222.09
2023-07-03T10:36:38.268Z,100224.78
2023-07-03T10:39:11.089Z,100227.38
2023-07-03T10:41:45.535Z,100227.25
2023-07-03T10:44:19.142Z,100229.22
2023-07-03T10:46:55.525Z,100230.19
2023-07-03T10:49:28.418Z,100227.00
2023-07-03T10:52:01.902Z,100223.63
2023-07-03T10:54:35.160Z,100226.13
2023-07-03T10:57:08.705Z,100212.69
2023-07-03T10:59:44.705Z,100225.31
2023-07-03T11:02:24.534Z,100220.00
2023-07-03T11:05:04.146Z,100219.66
2023-07-03T11:07:39.936Z,100222.44
2023-07-03T11:10:19.228Z,100231.41
2023-07-03T11:12:53.920Z,100229.31
2023-07-03T11:15:33.117Z,100230.69
2023-07-03T11:23:38.005Z,100231.03
2023-07-03T11:28:52.480Z,100233.00
2023-07-03T11:31:21.663Z,100209.31
2023-07-03T11:36:51.577Z,100213.63
2023-07-03T11:44:48.508Z,100215.78
2023-07-03T11:47:21.273Z,100211.72
2023-07-03T11:49:55.910Z,100210.88
2023-07-03T11:52:28.437Z,100206.09
2023-07-03T11:55:02.040Z,100205.25
2023-07-03T11:57:34.461Z,100204.94
2023-07-03T12:00:18.592Z,100211.13
2023-07-03T12:02:59.862Z,100195.19
2023-07-03T12:06:07.721Z,100200.88
2023-07-03T12:08:53.430Z,100194.94
2023-07-03T12:11:28.345Z,100193.50
2023-07-03T12:13:57.132Z,100187.00
2023-07-03T12:16:32.608Z,100188.06
2023-07-03T12:19:05.516Z,100185.03
2023-07-03T12:21:44.227Z,100180.41
2023-07-03T12:24:26.606Z,100187.69
2023-07-03T12:26:58.981Z,100177.78
2023-07-03T12:29:27.449Z,100168.63
2023-07-03T12:31:58.027Z,100178.53
2023-07-03T12:34:28.508Z,100155.75
2023-07-03T12:37:07.659Z,100177.16
2023-07-03T12:39:39.192Z,100170.47
2023-07-03T12:42:09.947Z,100165.13
2023-07-03T12:44:39.421Z,100170.91
2023-07-03T12:47:14.147Z,100168.06
2023-07-03T12:49:56.973Z,100172.84
2023-07-03T12:52:29.300Z,100176.72
2023-07-03T12:55:13.867Z,100166.28
2023-07-03T12:57:46.266Z,100168.50
2023-07-03T13:00:25.808Z,100163.06
2023-07-03T13:02:59.181Z,100167.44
2023-07-03T13:05:28.413Z,100152.59
2023-07-03T13:07:56.643Z,100161.72
2023-07-03T13:10:26.885Z,100162.69
2023-07-03T13:13:07.010Z,100164.41
2023-07-03T13:15:37.518Z,100168.75
2023-07-03T13:18:08.295Z,100165.25
2023-07-03T13:20:37.774Z,100171.91
2023-07-03T13:23:08.458Z,100174.78
2023-07-03T13:25:48.557Z,100163.25
2023-07-03T13:28:22.904Z,100159.47
2023-07-03T13:31:13.524Z,100159.38
2023-07-03T13:33:43.431Z,100161.84
2023-07-03T13:36:24.465Z,100158.16
2023-07-03T13:39:04.500Z,100161.25
2023-07-03T13:41:35.268Z,100157.50
2023-07-03T13:44:07.082Z,100157.41
2023-07-03T13:46:36.804Z,100160.03
2023-07-03T13:49:06.531Z,100147.25
2023-07-03T13:51:36.211Z,100134.69
2023-07-03T13:54:11.824Z,100153.09
2023-07-03T13:56:43.286Z,100138.84
2023-07-03T13:59:12.899Z,100143.00
2023-07-03T14:01:43.512Z,100147.88
2023-07-03T14:04:13.223Z,100145.59
2023-07-03T14:06:41.672Z,100135.03
2023-07-03T14:09:11.305Z,100145.13
2023-07-03T14:11:39.778Z,100137.13
2023-07-03T14:14:10.923Z,100123.69
2023-07-03T14:16:39.093Z,100137.63
2023-07-03T14:19:07.838Z,100125.25
2023-07-03T14:21:36.547Z,100128.34
2023-07-03T14:24:04.988Z,100137.38
2023-07-03T14:26:33.488Z,100115.78
2023-07-03T14:29:01.808Z,100141.78
2023-07-03T14:31:32.382Z,100143.34
2023-07-03T14:34:01.133Z,100143.72
2023-07-03T14:36:29.949Z,100144.31
2023-07-03T14:38:58.244Z,100146.19
2023-07-03T14:41:26.526Z,100135.34
2023-07-03T14:43:56.090Z,100139.41
2023-07-03T14:46:24.224Z,100134.53
2023-07-03T14:48:55.591Z,100131.09
2023-07-03T14:51:23.862Z,100131.47
2023-07-03T14:53:51.989Z,100142.03
2023-07-03T14:56:20.260Z,100138.28
2023-07-03T14:58:48.347Z,100137.97
2023-07-03T15:01:16.597Z,100120.28
2023-07-03T15:03:45.458Z,100129.47
2023-07-03T15:06:15.888Z,100129.81
2023-07-03T15:08:44.053Z,100135.38
2023-07-03T15:11:15.848Z,100135.50
2023-07-03T15:13:44.557Z,100130.13
2023-07-03T15:16:13.119Z,100142.75
2023-07-03T15:18:41.300Z,100128.03
2023-07-03T15:21:09.806Z,100132.41
2023-07-03T15:23:39.747Z,100131.75
2023-07-03T15:26:09.416Z,100139.25
2023-07-03T15:28:37.970Z,100120.41
2023-07-03T15:31:06.747Z,100138.63
2023-07-03T15:33:36.247Z,100143.47
2023-07-03T15:36:04.531Z,100152.50
2023-07-03T15:38:33.054Z,100125.03
2023-07-03T15:41:03.239Z,100143.44
2023-07-03T15:43:32.562Z,100145.63
2023-07-03T15:46:06.155Z,100154.38
2023-07-03T15:48:35.203Z,100141.59
2023-07-03T15:51:04.130Z,100151.28
2023-07-03T15:53:32.854Z,100152.47
2023-07-03T15:56:04.274Z,100140.00
2023-07-03T15:58:34.390Z,100157.59
2023-07-03T16:01:07.184Z,100153.75
2023-07-03T16:03:37.628Z,100156.56
2023-07-03T16:06:08.414Z,100159.25
2023-07-03T16:08:38.375Z,100166.13
2023-07-03T16:11:09.157Z,100167.88
2023-07-03T16:13:38.812Z,100174.50
2023-07-03T16:16:08.575Z,100173.56
2023-07-03T16:18:37.526Z,100173.81
2023-07-03T16:21:08.083Z,100171.47
2023-07-03T16:23:36.536Z,100168.44
2023-07-03T16:26:06.785Z,100163.88
2023-07-03T16:28:39.425Z,100158.53
2023-07-03T16:31:09.699Z,100170.88
2023-07-03T16:33:41.420Z,100168.44
2023-07-03T16:36:14.205Z,100161.63
2023-07-03T16:38:47.161Z,100166.16
2023-07-03T16:41:16.612Z,100167.47
2023-07-03T16:43:47.705Z,100176.81
2023-07-03T16:46:19.095Z,100175.75
2023-07-03T16:48:48.504Z,100187.94
2023-07-03T16:51:18.381Z,100190.72
2023-07-03T16:53:46.897Z,100191.03
2023-07-03T16:56:17.113Z,100196.38
2023-07-03T16:58:48.162Z,100186.50
2023-07-03T17:01:18.846Z,100195.91
2023-07-03T17:03:47.752Z,100197.03
2023-07-03T17:06:21.050Z,100201.78
2023-07-03T17:08:50.552Z,100206.09
2023-07-03T17:11:19.584Z,100202.75
2023-07-03T17:13:50.778Z,100200.09
2023-07-03T17:16:20.013Z,100192.72
2023-07-03T17:18:49.015Z,100198.44
2023-07-03T17:21:17.634Z,100207.94
2023-07-03T17:23:47.424Z,100176.66
2023-07-03T17:26:15.857Z,100217.31
2023-07-03T17:28:44.363Z,100218.88
2023-07-03T17:31:13.982Z,100228.91
2023-07-03T17:33:42.295Z,100230.03
2023-07-03T17:36:10.731Z,100237.84
2023-07-03T17:38:39.168Z,100234.34
2023-07-03T17:41:08.648Z,100239.91
2023-07-03T17:43:38.008Z,100239.53
2023-07-03T17:46:06.217Z,100239.53
2023-07-03T17:48:36.308Z,100239.53
2023-07-03T17:51:06.811Z,100254.53
2023-07-03T17:53:34.940Z,100244.03
2023-07-03T17:56:03.200Z,100260.09
2023-07-03T17:58:31.583Z,100250.22
2023-07-03T18:01:02.632Z,100251.44
2023-07-03T18:03:32.390Z,100253.72
2023-07-03T18:06:03.183Z,100256.69
2023-07-03T18:08:31.819Z,100259.22
2023-07-03T18:10:59.989Z,100263.81
2023-07-03T18:13:29.101Z,100268.97
2023-07-03T18:15:57.743Z,100276.75
2023-07-03T18:18:26.077Z,100270.63
2023-07-03T18:20:54.164Z,100266.94
2023-07-03T18:23:23.822Z,100266.69
2023-07-03T18:25:52.386Z,100275.50
2023-07-03T18:28:21.051Z,100270.69
2023-07-03T18:30:58.725Z,100280.44
2023-07-03T18:33:27.130Z,100284.78
2023-07-03T18:35:55.345Z,100277.38
2023-07-03T18:38:25.660Z,100283.13
2023-07-03T18:40:54.620Z,100285.41
2023-07-03T18:43:22.667Z,100284.84
2023-07-03T18:45:51.046Z,100278.75
2023-07-03T18:48:19.680Z,100293.13
2023-07-03T18:50:47.734Z,100297.63
2023-07-03T18:53:15.865Z,100304.88
2023-07-03T18:55:51.312Z,100302.44
2023-07-03T18:58:19.781Z,100301.84
2023-07-03T19:00:48.161Z,100306.00
2023-07-03T19:03:16.593Z,100309.69
2023-07-03T19:05:51.776Z,100314.00
2023-07-03T19:08:20.392Z,100314.63
2023-07-03T19:10:49.814Z,100318.13
2023-07-03T19:13:18.357Z,100309.34
2023-07-03T19:15:46.717Z,100312.84
2023-07-03T19:18:15.177Z,100322.88
2023-07-03T19:20:43.473Z,100317.16
2023-07-03T19:23:11.502Z,100313.88
2023-07-03T19:25:39.792Z,100319.44
2023-07-03T19:28:09.631Z,100316.56
2023-07-03T19:30:37.627Z,100326.38
2023-07-03T19:33:05.783Z,100329.44
2023-07-03T19:35:35.613Z,100329.47
2023-07-03T19:38:03.703Z,100331.09
2023-07-03T19:40:35.078Z,100331.91
2023-07-03T19:43:03.183Z,100331.91
2023-07-03T19:45:33.913Z,100330.22
2023-07-03T19:48:02.290Z,100332.28
2023-07-03T19:50:30.575Z,100335.34
2023-07-03T19:52:58.658Z,100343.16
2023-07-03T19:55:28.086Z,100345.19
2023-07-03T19:57:56.607Z,100346.59
2023-07-03T20:00:26.941Z,100347.19
2023-07-03T20:02:57.023Z,100342.25
2023-07-03T20:05:25.414Z,100340.81
2023-07-03T20:07:53.934Z,100337.13
2023-07-03T20:10:22.003Z,100348.78
2023-07-03T20:12:51.783Z,100354.91
2023-07-03T20:15:21.701Z,100355.09
2023-07-03T20:17:51.490Z,100359.19
2023-07-03T20:20:20.930Z,100356.28
2023-07-03T20:22:49.827Z,100361.63
2023-07-03T20:25:17.997Z,100358.13
2023-07-03T20:27:46.635Z,100357.47
2023-07-03T20:30:14.788Z,100362.78
2023-07-03T20:32:45.116Z,100360.50
2023-07-03T20:35:13.380Z,100369.69
2023-07-03T20:37:42.955Z,100360.66
2023-07-03T20:40:11.849Z,100365.16
2023-07-03T20:42:39.868Z,100362.78
2023-07-03T20:45:09.079Z,100363.22
2023-07-03T20:47:37.222Z,100369.41
2023-07-03T20:50:05.608Z,100373.47
2023-07-03T20:52:36.667Z,100373.66
2023-07-03T20:55:23.539Z,100372.66
2023-07-03T20:57:52.174Z,100375.06
2023-07-03T21:00:21.860Z,100385.25
2023-07-03T21:02:51.820Z,100383.16
2023-07-03T21:05:21.013Z,100377.63
2023-07-03T21:07:49.195Z,100380.28
2023-07-03T21:10:18.987Z,100368.16
2023-07-03T21:12:47.799Z,100377.13
2023-07-03T21:15:16.067Z,100378.16
2023-07-03T21:17:44.172Z,100377.50
2023-07-03T21:20:13.138Z,100375.84
2023-07-03T21:22:41.226Z,100382.94
2023-07-03T21:25:09.810Z,100385.72
2023-07-03T21:27:39.597Z,100387.75
2023-07-03T21:30:08.957Z,100390.41
2023-07-03T21:32:37.015Z,100388.31
2023-07-03T21:35:05.458Z,100385.00
2023-07-03T21:37:33.432Z,100387.44
2023-07-03T21:40:01.376Z,100388.94
2023-07-03T21:42:29.524Z,100393.53
2023-07-03T21:44:59.059Z,100385.38
2023-07-03T21:47:27.802Z,100383.09
2023-07-03T21:49:55.899Z,100385.25
2023-07-03T21:52:23.921Z,100386.53
2023-07-03T21:54:51.870Z,100385.25
2023-07-03T21:57:20.545Z,100382.41
2023-07-03T21:59:50.242Z,100383.22
2023-07-03T22:02:19.769Z,100382.59
2023-07-03T22:04:47.811Z,100377.63
2023-07-03T22:07:16.230Z,100383.97
2023-07-03T22:09:44.351Z,100381.13
2023-07-03T22:12:12.622Z,100385.44
2023-07-03T22:14:40.656Z,100379.22
2023-07-03T22:17:08.701Z,100377.66
2023-07-03T22:19:40.089Z,100383.78
2023-07-03T22:22:08.789Z,100375.53
2023-07-03T22:24:36.803Z,100373.25
2023-07-03T22:27:05.659Z,100378.03
2023-07-03T22:29:34.413Z,100372.25
2023-07-03T22:32:02.541Z,100374.91
2023-07-03T22:34:30.599Z,100391.75
2023-07-03T22:37:00.392Z,100383.16
2023-07-03T22:39:28.356Z,100385.63
2023-07-03T22:41:56.393Z,100391.13
2023-07-03T22:44:24.359Z,100395.59
2023-07-03T22:46:53.324Z,100390.28
2023-07-03T22:49:25.376Z,100400.09
2023-07-03T22:51:54.270Z,100395.13
2023-07-03T22:54:24.203Z,100399.19
2023-07-03T22:56:52.203Z,100401.19
2023-07-03T22:59:20.171Z,100394.59
2023-07-03T23:01:49.427Z,100389.41
2023-07-03T23:04:18.311Z,100402.31
2023-07-03T23:06:47.016Z,100409.97
2023-07-03T23:09:15.208Z,100404.59
2023-07-03T23:11:44.652Z,100408.72
2023-07-03T23:14:16.749Z,100407.44
2023-07-03T23:16:44.994Z,100407.97
2023-07-03T23:19:13.794Z,100415.84
2023-07-03T23:21:41.777Z,100418.19
2023-07-03T23:24:10.484Z,100414.47
2023-07-03T23:26:38.710Z,100411.72
2023-07-03T23:29:09.160Z,100413.69
2023-07-03T23:31:37.501Z,100418.06
2023-07-03T23:34:06.887Z,100417.59
2023-07-03T23:36:35.800Z,100413.66
2023-07-03T23:39:04.176Z,100401.31
2023-07-03T23:41:33.730Z,100416.56
2023-07-03T23:44:01.808Z,100404.56
2023-07-03T23:46:33.155Z,100406.13
2023-07-03T23:49:02.082Z,100409.94
2023-07-03T23:51:31.301Z,100417.63
2023-07-03T23:54:00.365Z,100414.31
2023-07-03T23:56:28.816Z,100412.94
2023-07-03T23:58:57.243Z,100418.91
